sensor_id;sensor_type;location;lat;lon;timestamp;pressure;altitude;pressure_sealevel;temperature;humidity
85319;BME280;75722;49.004;12.120;2024-02-21T00:01:05;98741.63;;;4.79;64.85
85319;BME280;75722;49.004;12.120;2024-02-21T00:03:31;98733.44;;;4.81;65.26
85319;BME280;75722;49.004;12.120;2024-02-21T00:05:56;98733.00;;;4.75;64.79
85319;BME280;75722;49.004;12.120;2024-02-21T00:08:22;98731.56;;;4.71;64.86
85319;BME280;75722;49.004;12.120;2024-02-21T00:10:47;98731.16;;;4.76;64.56
85319;BME280;75722;49.004;12.120;2024-02-21T00:13:12;98731.31;;;4.84;64.55
85319;BME280;75722;49.004;12.120;2024-02-21T00:15:38;98719.44;;;4.77;64.94
85319;BME280;75722;49.004;12.120;2024-02-21T00:18:03;98712.66;;;4.73;64.86
85319;BME280;75722;49.004;12.120;2024-02-21T00:20:28;98717.03;;;4.74;65.62
85319;BME280;75722;49.004;12.120;2024-02-21T00:22:54;98719.00;;;4.72;65.55
85319;BME280;75722;49.004;12.120;2024-02-21T00:25:20;98714.22;;;4.75;65.59
85319;BME280;75722;49.004;12.120;2024-02-21T00:27:45;98714.38;;;4.74;65.75
85319;BME280;75722;49.004;12.120;2024-02-21T00:30:11;98711.69;;;4.74;65.80
85319;BME280;75722;49.004;12.120;2024-02-21T00:32:36;98712.66;;;4.73;66.00
85319;BME280;75722;49.004;12.120;2024-02-21T00:35:02;98707.56;;;4.70;66.23
85319;BME280;75722;49.004;12.120;2024-02-21T00:37:27;98704.28;;;4.66;66.28
85319;BME280;75722;49.004;12.120;2024-02-21T00:39:54;98699.06;;;4.65;66.44
85319;BME280;75722;49.004;12.120;2024-02-21T00:42:19;98692.00;;;4.64;66.64
85319;BME280;75722;49.004;12.120;2024-02-21T00:44:45;98696.38;;;4.65;66.44
85319;BME280;75722;49.004;12.120;2024-02-21T00:47:10;98693.28;;;4.59;67.23
85319;BME280;75722;49.004;12.120;2024-02-21T00:49:35;98699.31;;;4.61;67.29
85319;BME280;75722;49.004;12.120;2024-02-21T00:52:01;98689.19;;;4.65;67.33
85319;BME280;75722;49.004;12.120;2024-02-21T00:54:26;98698.34;;;4.53;67.62
85319;BME280;75722;49.004;12.120;2024-02-21T00:56:51;98693.00;;;4.62;66.64
85319;BME280;75722;49.004;12.120;2024-02-21T00:59:18;98690.38;;;4.82;65.44
85319;BME280;75722;49.004;12.120;2024-02-21T01:01:43;98689.91;;;4.77;65.26
85319;BME280;75722;49.004;12.120;2024-02-21T01:04:09;98695.59;;;4.74;65.52
85319;BME280;75722;49.004;12.120;2024-02-21T01:06:34;98693.16;;;4.71;65.39
85319;BME280;75722;49.004;12.120;2024-02-21T01:09:00;98690.72;;;4.58;66.27
85319;BME280;75722;49.004;12.120;2024-02-21T01:11:25;98694.97;;;4.60;66.26
85319;BME280;75722;49.004;12.120;2024-02-21T01:13:51;98693.69;;;4.65;66.60
85319;BME280;75722;49.004;12.120;2024-02-21T01:16:16;98689.72;;;4.59;66.88
85319;BME280;75722;49.004;12.120;2024-02-21T01:18:41;98684.88;;;4.43;67.76
85319;BME280;75722;49.004;12.120;2024-02-21T01:21:07;98685.84;;;4.42;67.83
85319;BME280;75722;49.004;12.120;2024-02-21T01:23:34;98690.88;;;4.25;68.61
85319;BME280;75722;49.004;12.120;2024-02-21T01:26:00;98680.00;;;4.27;68.66
85319;BME280;75722;49.004;12.120;2024-02-21T01:28:25;98675.91;;;4.22;68.99
85319;BME280;75722;49.004;12.120;2024-02-21T01:30:50;98679.28;;;4.24;68.86
85319;BME280;75722;49.004;12.120;2024-02-21T01:33:17;98670.41;;;4.24;69.83
85319;BME280;75722;49.004;12.120;2024-02-21T01:35:42;98668.75;;;4.11;69.22
85319;BME280;75722;49.004;12.120;2024-02-21T01:38:07;98671.78;;;4.18;69.06
85319;BME280;75722;49.004;12.120;2024-02-21T01:40:33;98670.28;;;4.04;69.52
85319;BME280;75722;49.004;12.120;2024-02-21T01:42:58;98668.91;;;4.10;69.21
85319;BME280;75722;49.004;12.120;2024-02-21T01:45:24;98662.41;;;4.03;69.34
85319;BME280;75722;49.004;12.120;2024-02-21T01:47:49;98660.88;;;3.89;70.15
85319;BME280;75722;49.004;12.120;2024-02-21T01:50:16;98655.13;;;3.93;69.90
85319;BME280;75722;49.004;12.120;2024-02-21T01:52:43;98653.53;;;3.81;69.91
85319;BME280;75722;49.004;12.120;2024-02-21T01:55:13;98644.44;;;3.72;70.61
85319;BME280;75722;49.004;12.120;2024-02-21T01:57:40;98648.22;;;3.69;70.62
85319;BME280;75722;49.004;12.120;2024-02-21T02:00:07;98640.56;;;3.65;71.20
85319;BME280;75722;49.004;12.120;2024-02-21T02:02:32;98641.25;;;3.78;70.63
85319;BME280;75722;49.004;12.120;2024-02-21T02:04:58;98635.53;;;3.71;70.65
85319;BME280;75722;49.004;12.120;2024-02-21T02:07:24;98638.16;;;3.83;70.42
85319;BME280;75722;49.004;12.120;2024-02-21T02:09:49;98633.19;;;3.78;70.24
85319;BME280;75722;49.004;12.120;2024-02-21T02:12:15;98632.22;;;3.79;70.40
85319;BME280;75722;49.004;12.120;2024-02-21T02:14:40;98619.81;;;3.78;70.61
85319;BME280;75722;49.004;12.120;2024-02-21T02:17:06;98620.75;;;3.77;70.62
85319;BME280;75722;49.004;12.120;2024-02-21T02:19:31;98620.38;;;3.82;71.03
85319;BME280;75722;49.004;12.120;2024-02-21T02:22:09;98609.59;;;3.93;69.78
85319;BME280;75722;49.004;12.120;2024-02-21T02:24:35;98608.47;;;3.96;70.17
85319;BME280;75722;49.004;12.120;2024-02-21T02:27:00;98603.47;;;4.13;69.38
85319;BME280;75722;49.004;12.120;2024-02-21T02:29:25;98602.47;;;4.14;69.19
85319;BME280;75722;49.004;12.120;2024-02-21T02:31:51;98599.69;;;4.25;68.79
85319;BME280;75722;49.004;12.120;2024-02-21T02:34:16;98586.47;;;4.33;69.11
85319;BME280;75722;49.004;12.120;2024-02-21T02:36:41;98591.59;;;4.46;67.79
85319;BME280;75722;49.004;12.120;2024-02-21T02:39:07;98579.56;;;4.41;68.03
85319;BME280;75722;49.004;12.120;2024-02-21T02:41:35;98577.72;;;4.31;67.75
85319;BME280;75722;49.004;12.120;2024-02-21T02:44:01;98581.63;;;4.27;67.94
85319;BME280;75722;49.004;12.120;2024-02-21T02:46:26;98579.94;;;4.26;68.50
85319;BME280;75722;49.004;12.120;2024-02-21T02:48:51;98570.09;;;4.36;67.75
85319;BME280;75722;49.004;12.120;2024-02-21T02:51:16;98578.44;;;4.43;67.47
85319;BME280;75722;49.004;12.120;2024-02-21T02:53:42;98575.19;;;4.30;68.01
85319;BME280;75722;49.004;12.120;2024-02-21T02:56:14;98562.88;;;4.27;68.13
85319;BME280;75722;49.004;12.120;2024-02-21T02:58:39;98568.66;;;4.22;68.12
85319;BME280;75722;49.004;12.120;2024-02-21T03:01:06;98561.78;;;4.30;67.72
85319;BME280;75722;49.004;12.120;2024-02-21T03:03:32;98562.16;;;4.25;68.00
85319;BME280;75722;49.004;12.120;2024-02-21T03:05:57;98565.72;;;4.26;68.58
85319;BME280;75722;49.004;12.120;2024-02-21T03:08:22;98562.47;;;4.42;67.68
85319;BME280;75722;49.004;12.120;2024-02-21T03:10:48;98560.81;;;4.41;67.46
85319;BME280;75722;49.004;12.120;2024-02-21T03:13:13;98565.75;;;4.35;67.29
85319;BME280;75722;49.004;12.120;2024-02-21T03:15:39;98563.38;;;4.52;67.37
85319;BME280;75722;49.004;12.120;2024-02-21T03:18:04;98558.25;;;4.39;67.45
85319;BME280;75722;49.004;12.120;2024-02-21T03:20:30;98555.72;;;4.47;67.32
85319;BME280;75722;49.004;12.120;2024-02-21T03:22:55;98556.59;;;4.48;66.89
85319;BME280;75722;49.004;12.120;2024-02-21T03:25:20;98564.63;;;4.48;66.93
85319;BME280;75722;49.004;12.120;2024-02-21T03:27:46;98556.03;;;4.54;66.79
85319;BME280;75722;49.004;12.120;2024-02-21T03:30:11;98557.00;;;4.53;66.96
85319;BME280;75722;49.004;12.120;2024-02-21T03:32:37;98550.50;;;4.46;67.15
85319;BME280;75722;49.004;12.120;2024-02-21T03:35:04;98545.97;;;4.36;67.64
85319;BME280;75722;49.004;12.120;2024-02-21T03:37:30;98549.19;;;4.30;67.75
85319;BME280;75722;49.004;12.120;2024-02-21T03:39:55;98546.09;;;4.25;67.93
85319;BME280;75722;49.004;12.120;2024-02-21T03:42:21;98553.69;;;4.20;68.32
85319;BME280;75722;49.004;12.120;2024-02-21T03:44:46;98544.38;;;4.14;68.01
85319;BME280;75722;49.004;12.120;2024-02-21T03:47:11;98544.03;;;4.07;68.29
85319;BME280;75722;49.004;12.120;2024-02-21T03:49:37;98546.81;;;3.96;68.72
85319;BME280;75722;49.004;12.120;2024-02-21T03:52:03;98543.31;;;3.95;68.69
85319;BME280;75722;49.004;12.120;2024-02-21T03:54:28;98543.88;;;3.99;68.27
85319;BME280;75722;49.004;12.120;2024-02-21T03:56:53;98538.63;;;3.88;68.90
85319;BME280;75722;49.004;12.120;2024-02-21T03:59:19;98558.88;;;3.80;68.93
85319;BME280;75722;49.004;12.120;2024-02-21T04:01:44;98556.63;;;3.76;68.94
85319;BME280;75722;49.004;12.120;2024-02-21T04:04:10;98556.06;;;3.82;69.77
85319;BME280;75722;49.004;12.120;2024-02-21T04:06:35;98551.56;;;3.82;69.08
85319;BME280;75722;49.004;12.120;2024-02-21T04:09:01;98548.34;;;3.89;68.58
85319;BME280;75722;49.004;12.120;2024-02-21T04:11:27;98544.66;;;3.80;68.99
85319;BME280;75722;49.004;12.120;2024-02-21T04:13:52;98544.78;;;3.78;69.49
85319;BME280;75722;49.004;12.120;2024-02-21T04:16:17;98538.06;;;3.84;69.43
85319;BME280;75722;49.004;12.120;2024-02-21T04:18:43;98545.13;;;3.95;69.09
85319;BME280;75722;49.004;12.120;2024-02-21T04:21:09;98540.94;;;4.02;68.68
85319;BME280;75722;49.004;12.120;2024-02-21T04:23:35;98533.88;;;4.01;68.71
85319;BME280;75722;49.004;12.120;2024-02-21T04:26:01;98534.31;;;4.06;68.79
85319;BME280;75722;49.004;12.120;2024-02-21T04:28:26;98537.88;;;4.17;68.28
85319;BME280;75722;49.004;12.120;2024-02-21T04:30:51;98534.22;;;4.18;68.16
85319;BME280;75722;49.004;12.120;2024-02-21T04:33:17;98527.28;;;4.15;68.23
85319;BME280;75722;49.004;12.120;2024-02-21T04:35:42;98519.22;;;4.05;68.58
85319;BME280;75722;49.004;12.120;2024-02-21T04:38:07;98519.53;;;4.12;68.59
85319;BME280;75722;49.004;12.120;2024-02-21T04:40:33;98512.44;;;4.01;68.65
85319;BME280;75722;49.004;12.120;2024-02-21T04:42:59;98509.19;;;3.97;68.68
85319;BME280;75722;49.004;12.120;2024-02-21T04:45:24;98504.81;;;3.96;68.88
85319;BME280;75722;49.004;12.120;2024-02-21T04:47:49;98498.34;;;4.09;69.33
85319;BME280;75722;49.004;12.120;2024-02-21T04:50:15;98502.28;;;4.05;69.00
85319;BME280;75722;49.004;12.120;2024-02-21T04:52:40;98500.75;;;4.02;68.61
85319;BME280;75722;49.004;12.120;2024-02-21T04:55:06;98502.56;;;4.02;68.83
85319;BME280;75722;49.004;12.120;2024-02-21T04:57:32;98504.53;;;4.00;69.05
85319;BME280;75722;49.004;12.120;2024-02-21T04:59:57;98505.66;;;3.97;69.13
85319;BME280;75722;49.004;12.120;2024-02-21T05:02:22;98497.91;;;3.94;69.39
85319;BME280;75722;49.004;12.120;2024-02-21T05:04:49;98498.59;;;3.96;69.04
85319;BME280;75722;49.004;12.120;2024-02-21T05:07:15;98489.19;;;4.11;68.66
85319;BME280;75722;49.004;12.120;2024-02-21T05:09:42;98493.00;;;4.19;68.23
85319;BME280;75722;49.004;12.120;2024-02-21T05:12:07;98488.22;;;4.13;68.14
85319;BME280;75722;49.004;12.120;2024-02-21T05:14:33;98489.63;;;4.17;68.59
85319;BME280;75722;49.004;12.120;2024-02-21T05:16:58;98487.91;;;4.16;68.27
85319;BME280;75722;49.004;12.120;2024-02-21T05:19:24;98491.59;;;4.15;68.21
85319;BME280;75722;49.004;12.120;2024-02-21T05:21:49;98480.47;;;4.29;68.14
85319;BME280;75722;49.004;12.120;2024-02-21T05:24:14;98475.66;;;4.33;67.75
85319;BME280;75722;49.004;12.120;2024-02-21T05:26:39;98474.13;;;4.30;67.72
85319;BME280;75722;49.004;12.120;2024-02-21T05:29:05;98465.06;;;4.21;68.55
85319;BME280;75722;49.004;12.120;2024-02-21T05:32:03;98463.97;;;4.24;68.09
85319;BME280;75722;49.004;12.120;2024-02-21T05:34:28;98465.38;;;4.28;68.44
85319;BME280;75722;49.004;12.120;2024-02-21T05:36:53;98456.63;;;4.26;68.09
85319;BME280;75722;49.004;12.120;2024-02-21T05:39:19;98464.09;;;4.22;68.37
85319;BME280;75722;49.004;12.120;2024-02-21T05:41:47;98462.13;;;4.24;68.06
85319;BME280;75722;49.004;12.120;2024-02-21T05:44:12;98459.88;;;4.20;68.12
85319;BME280;75722;49.004;12.120;2024-02-21T05:46:38;98454.47;;;4.10;68.77
85319;BME280;75722;49.004;12.120;2024-02-21T05:49:03;98446.44;;;4.10;69.09
85319;BME280;75722;49.004;12.120;2024-02-21T05:51:35;98445.16;;;4.04;69.24
85319;BME280;75722;49.004;12.120;2024-02-21T05:54:01;98446.59;;;4.08;68.87
85319;BME280;75722;49.004;12.120;2024-02-21T05:56:26;98452.50;;;4.12;69.09
85319;BME280;75722;49.004;12.120;2024-02-21T05:58:51;98439.97;;;4.13;68.88
85319;BME280;75722;49.004;12.120;2024-02-21T06:01:17;98432.63;;;4.15;68.92
85319;BME280;75722;49.004;12.120;2024-02-21T06:03:43;98446.47;;;4.20;68.85
85319;BME280;75722;49.004;12.120;2024-02-21T06:06:08;98440.66;;;4.24;68.58
85319;BME280;75722;49.004;12.120;2024-02-21T06:08:33;98432.94;;;4.31;68.73
85319;BME280;75722;49.004;12.120;2024-02-21T06:10:59;98435.47;;;4.43;67.73
85319;BME280;75722;49.004;12.120;2024-02-21T06:13:24;98427.84;;;4.48;67.46
85319;BME280;75722;49.004;12.120;2024-02-21T06:15:50;98425.16;;;4.48;67.28
85319;BME280;75722;49.004;12.120;2024-02-21T06:18:19;98425.59;;;4.43;67.37
85319;BME280;75722;49.004;12.120;2024-02-21T06:20:45;98421.06;;;4.44;67.41
85319;BME280;75722;49.004;12.120;2024-02-21T06:23:17;98426.03;;;4.48;67.16
85319;BME280;75722;49.004;12.120;2024-02-21T06:25:43;98424.75;;;4.53;67.21
85319;BME280;75722;49.004;12.120;2024-02-21T06:28:08;98433.22;;;4.58;66.97
85319;BME280;75722;49.004;12.120;2024-02-21T06:30:35;98432.78;;;4.62;66.50
85319;BME280;75722;49.004;12.120;2024-02-21T06:33:01;98425.88;;;4.70;66.30
85319;BME280;75722;49.004;12.120;2024-02-21T06:35:28;98430.66;;;4.76;65.81
85319;BME280;75722;49.004;12.120;2024-02-21T06:37:53;98432.19;;;4.79;65.83
85319;BME280;75722;49.004;12.120;2024-02-21T06:40:21;98441.63;;;4.83;65.98
85319;BME280;75722;49.004;12.120;2024-02-21T06:42:47;98439.38;;;4.98;65.58
85319;BME280;75722;49.004;12.120;2024-02-21T06:45:12;98448.09;;;5.20;64.97
85319;BME280;75722;49.004;12.120;2024-02-21T06:47:37;98449.78;;;5.21;64.57
85319;BME280;75722;49.004;12.120;2024-02-21T06:50:06;98446.22;;;5.30;64.18
85319;BME280;75722;49.004;12.120;2024-02-21T06:52:31;98452.16;;;5.34;64.47
85319;BME280;75722;49.004;12.120;2024-02-21T06:54:57;98444.66;;;5.28;65.78
85319;BME280;75722;49.004;12.120;2024-02-21T06:57:22;98459.53;;;5.22;65.62
85319;BME280;75722;49.004;12.120;2024-02-21T06:59:48;98447.78;;;5.23;66.03
85319;BME280;75722;49.004;12.120;2024-02-21T07:02:13;98444.66;;;5.28;66.60
85319;BME280;75722;49.004;12.120;2024-02-21T07:04:38;98454.56;;;5.27;66.68
85319;BME280;75722;49.004;12.120;2024-02-21T07:07:04;98444.00;;;5.16;67.02
85319;BME280;75722;49.004;12.120;2024-02-21T07:09:29;98442.28;;;5.14;66.98
85319;BME280;75722;49.004;12.120;2024-02-21T07:12:00;98439.50;;;5.06;67.26
85319;BME280;75722;49.004;12.120;2024-02-21T07:14:25;98447.25;;;5.19;67.16
85319;BME280;75722;49.004;12.120;2024-02-21T07:16:51;98437.28;;;5.39;66.57
85319;BME280;75722;49.004;12.120;2024-02-21T07:19:16;98446.25;;;5.58;66.96
85319;BME280;75722;49.004;12.120;2024-02-21T07:21:42;98440.66;;;5.80;66.67
85319;BME280;75722;49.004;12.120;2024-02-21T07:24:08;98459.75;;;6.33;64.01
85319;BME280;75722;49.004;12.120;2024-02-21T07:26:33;98451.34;;;6.36;63.96
85319;BME280;75722;49.004;12.120;2024-02-21T07:28:59;98464.41;;;7.30;61.61
85319;BME280;75722;49.004;12.120;2024-02-21T07:31:24;98460.72;;;7.66;60.23
85319;BME280;75722;49.004;12.120;2024-02-21T07:33:49;98464.59;;;7.63;60.29
85319;BME280;75722;49.004;12.120;2024-02-21T07:36:15;98467.09;;;7.56;60.15
85319;BME280;75722;49.004;12.120;2024-02-21T07:38:41;98457.13;;;7.83;59.67
85319;BME280;75722;49.004;12.120;2024-02-21T07:41:06;98458.75;;;8.19;58.31
85319;BME280;75722;49.004;12.120;2024-02-21T07:43:32;98449.59;;;8.97;55.30
85319;BME280;75722;49.004;12.120;2024-02-21T07:45:57;98446.56;;;8.92;55.43
85319;BME280;75722;49.004;12.120;2024-02-21T07:48:22;98443.31;;;9.13;55.37
85319;BME280;75722;49.004;12.120;2024-02-21T07:50:51;98439.63;;;8.89;55.04
85319;BME280;75722;49.004;12.120;2024-02-21T07:53:17;98438.78;;;8.72;56.83
85319;BME280;75722;49.004;12.120;2024-02-21T07:55:42;98432.72;;;8.87;54.93
85319;BME280;75722;49.004;12.120;2024-02-21T07:58:07;98428.16;;;8.54;55.51
85319;BME280;75722;49.004;12.120;2024-02-21T08:00:33;98420.00;;;8.37;56.17
85319;BME280;75722;49.004;12.120;2024-02-21T08:02:58;98426.41;;;8.36;56.24
85319;BME280;75722;49.004;12.120;2024-02-21T08:05:24;98417.44;;;8.19;57.72
85319;BME280;75722;49.004;12.120;2024-02-21T08:07:49;98411.47;;;7.99;57.28
85319;BME280;75722;49.004;12.120;2024-02-21T08:10:15;98394.97;;;8.02;58.99
85319;BME280;75722;49.004;12.120;2024-02-21T08:12:40;98392.00;;;7.70;58.54
85319;BME280;75722;49.004;12.120;2024-02-21T08:15:06;98381.47;;;7.93;57.40
85319;BME280;75722;49.004;12.120;2024-02-21T08:17:33;98376.97;;;8.11;58.63
85319;BME280;75722;49.004;12.120;2024-02-21T08:19:59;98374.09;;;8.04;58.40
85319;BME280;75722;49.004;12.120;2024-02-21T08:22:24;98374.97;;;8.46;56.23
85319;BME280;75722;49.004;12.120;2024-02-21T08:24:49;98381.56;;;8.85;54.99
85319;BME280;75722;49.004;12.120;2024-02-21T08:27:15;98377.81;;;9.19;53.79
85319;BME280;75722;49.004;12.120;2024-02-21T08:29:40;98373.78;;;14.30;44.23
85319;BME280;75722;49.004;12.120;2024-02-21T08:32:06;98375.84;;;20.11;33.45
85319;BME280;75722;49.004;12.120;2024-02-21T08:34:31;98376.78;;;23.70;28.67
85319;BME280;75722;49.004;12.120;2024-02-21T08:36:59;98369.25;;;25.91;26.07
85319;BME280;75722;49.004;12.120;2024-02-21T08:39:24;98370.00;;;27.32;23.54
85319;BME280;75722;49.004;12.120;2024-02-21T08:41:50;98360.50;;;26.74;24.27
85319;BME280;75722;49.004;12.120;2024-02-21T08:44:16;98359.50;;;28.46;22.54
85319;BME280;75722;49.004;12.120;2024-02-21T08:46:41;98367.13;;;25.61;24.46
85319;BME280;75722;49.004;12.120;2024-02-21T08:49:10;98377.72;;;26.71;23.23
85319;BME280;75722;49.004;12.120;2024-02-21T08:51:35;98383.78;;;25.30;25.46
85319;BME280;75722;49.004;12.120;2024-02-21T08:54:00;98383.38;;;22.88;27.67
85319;BME280;75722;49.004;12.120;2024-02-21T08:56:27;98386.19;;;20.21;30.50
85319;BME280;75722;49.004;12.120;2024-02-21T08:58:52;98386.84;;;18.37;33.45
85319;BME280;75722;49.004;12.120;2024-02-21T09:01:17;98370.47;;;16.74;36.63
85319;BME280;75722;49.004;12.120;2024-02-21T09:03:43;98354.81;;;18.92;32.53
85319;BME280;75722;49.004;12.120;2024-02-21T09:06:11;98351.06;;;20.23;30.91
85319;BME280;75722;49.004;12.120;2024-02-21T09:08:38;98353.91;;;22.38;28.57
85319;BME280;75722;49.004;12.120;2024-02-21T09:11:06;98346.91;;;26.67;24.21
85319;BME280;75722;49.004;12.120;2024-02-21T09:13:31;98345.34;;;27.79;22.73
85319;BME280;75722;49.004;12.120;2024-02-21T09:15:56;98332.63;;;29.08;22.06
85319;BME280;75722;49.004;12.120;2024-02-21T09:18:22;98330.44;;;30.68;20.42
85319;BME280;75722;49.004;12.120;2024-02-21T09:20:47;98322.78;;;32.19;18.73
85319;BME280;75722;49.004;12.120;2024-02-21T09:23:13;98324.56;;;30.33;20.24
85319;BME280;75722;49.004;12.120;2024-02-21T09:25:38;98326.44;;;31.29;19.28
85319;BME280;75722;49.004;12.120;2024-02-21T09:28:05;98329.72;;;31.63;19.28
85319;BME280;75722;49.004;12.120;2024-02-21T09:30:31;98325.53;;;31.11;19.49
85319;BME280;75722;49.004;12.120;2024-02-21T09:32:56;98327.44;;;32.32;18.75
85319;BME280;75722;49.004;12.120;2024-02-21T09:35:24;98322.00;;;31.69;19.23
85319;BME280;75722;49.004;12.120;2024-02-21T09:37:52;98319.53;;;30.35;20.01
85319;BME280;75722;49.004;12.120;2024-02-21T09:40:17;98316.69;;;31.49;19.21
85319;BME280;75722;49.004;12.120;2024-02-21T09:42:46;98321.81;;;29.20;20.41
85319;BME280;75722;49.004;12.120;2024-02-21T09:45:23;98318.91;;;32.46;18.62
85319;BME280;75722;49.004;12.120;2024-02-21T09:50:40;98293.09;;;31.10;19.07
85319;BME280;75722;49.004;12.120;2024-02-21T09:53:09;98298.34;;;31.84;19.37
85319;BME280;75722;49.004;12.120;2024-02-21T09:55:37;98286.41;;;32.54;18.27
85319;BME280;75722;49.004;12.120;2024-02-21T09:58:05;98284.97;;;31.72;18.83
85319;BME280;75722;49.004;12.120;2024-02-21T10:00:30;98299.47;;;28.73;21.12
85319;BME280;75722;49.004;12.120;2024-02-21T10:02:56;98289.94;;;31.03;19.47
85319;BME280;75722;49.004;12.120;2024-02-21T10:05:21;98278.16;;;32.22;18.16
85319;BME280;75722;49.004;12.120;2024-02-21T10:07:48;98278.47;;;29.42;20.55
85319;BME280;75722;49.004;12.120;2024-02-21T10:10:13;98287.00;;;31.89;19.16
85319;BME280;75722;49.004;12.120;2024-02-21T10:12:50;98276.41;;;30.50;19.40
85319;BME280;75722;49.004;12.120;2024-02-21T10:15:19;98275.69;;;30.21;19.86
85319;BME280;75722;49.004;12.120;2024-02-21T10:17:45;98278.16;;;31.46;19.00
85319;BME280;75722;49.004;12.120;2024-02-21T10:20:11;98265.00;;;31.56;19.26
85319;BME280;75722;49.004;12.120;2024-02-21T10:22:38;98268.09;;;32.66;17.64
85319;BME280;75722;49.004;12.120;2024-02-21T10:25:13;98270.75;;;30.41;19.53
85319;BME280;75722;49.004;12.120;2024-02-21T10:27:39;98264.66;;;29.65;20.56
85319;BME280;75722;49.004;12.120;2024-02-21T10:30:12;98262.28;;;30.46;19.65
85319;BME280;75722;49.004;12.120;2024-02-21T10:32:58;98267.38;;;31.80;19.13
85319;BME280;75722;49.004;12.120;2024-02-21T10:35:33;98263.94;;;31.83;18.27
85319;BME280;75722;49.004;12.120;2024-02-21T10:37:59;98266.13;;;32.48;18.46
85319;BME280;75722;49.004;12.120;2024-02-21T10:40:26;98253.94;;;32.62;18.20
85319;BME280;75722;49.004;12.120;2024-02-21T10:43:02;98255.88;;;32.79;17.61
85319;BME280;75722;49.004;12.120;2024-02-21T10:45:34;98252.44;;;31.94;18.17
85319;BME280;75722;49.004;12.120;2024-02-21T10:48:10;98247.25;;;31.20;19.44
85319;BME280;75722;49.004;12.120;2024-02-21T10:50:56;98234.34;;;32.35;18.24
85319;BME280;75722;49.004;12.120;2024-02-21T10:53:37;98236.97;;;31.96;18.60
85319;BME280;75722;49.004;12.120;2024-02-21T10:56:22;98220.97;;;32.59;18.30
85319;BME280;75722;49.004;12.120;2024-02-21T10:58:49;98208.25;;;29.12;21.10
85319;BME280;75722;49.004;12.120;2024-02-21T11:01:14;98197.88;;;30.06;19.98
85319;BME280;75722;49.004;12.120;2024-02-21T11:03:42;98200.25;;;28.91;20.68
85319;BME280;75722;49.004;12.120;2024-02-21T11:06:10;98190.19;;;29.10;20.88
85319;BME280;75722;49.004;12.120;2024-02-21T11:08:36;98177.56;;;30.28;19.98
85319;BME280;75722;49.004;12.120;2024-02-21T11:11:01;98183.56;;;28.25;21.59
85319;BME280;75722;49.004;12.120;2024-02-21T11:13:46;98181.81;;;26.54;23.29
85319;BME280;75722;49.004;12.120;2024-02-21T11:16:21;98172.53;;;26.94;22.80
85319;BME280;75722;49.004;12.120;2024-02-21T11:18:46;98164.28;;;24.41;25.32
85319;BME280;75722;49.004;12.120;2024-02-21T11:21:12;98160.78;;;26.13;23.88
85319;BME280;75722;49.004;12.120;2024-02-21T11:23:37;98155.41;;;28.12;22.06
85319;BME280;75722;49.004;12.120;2024-02-21T11:26:07;98156.53;;;27.73;22.91
85319;BME280;75722;49.004;12.120;2024-02-21T11:28:32;98146.28;;;26.56;23.11
85319;BME280;75722;49.004;12.120;2024-02-21T11:31:14;98134.66;;;24.47;23.71
85319;BME280;75722;49.004;12.120;2024-02-21T11:33:40;98128.03;;;24.48;24.16
85319;BME280;75722;49.004;12.120;2024-02-21T11:36:08;98126.78;;;26.61;22.60
85319;BME280;75722;49.004;12.120;2024-02-21T11:38:33;98116.84;;;27.48;20.95
85319;BME280;75722;49.004;12.120;2024-02-21T11:40:59;98118.44;;;27.92;21.17
85319;BME280;75722;49.004;12.120;2024-02-21T11:43:24;98108.78;;;28.04;21.76
85319;BME280;75722;49.004;12.120;2024-02-21T11:45:50;98106.47;;;29.01;20.25
85319;BME280;75722;49.004;12.120;2024-02-21T11:48:23;98103.34;;;29.16;20.31
85319;BME280;75722;49.004;12.120;2024-02-21T11:50:56;98098.19;;;29.24;21.41
85319;BME280;75722;49.004;12.120;2024-02-21T11:53:22;98090.84;;;28.43;21.33
85319;BME280;75722;49.004;12.120;2024-02-21T11:55:48;98091.72;;;28.25;21.44
85319;BME280;75722;49.004;12.120;2024-02-21T11:58:15;98086.72;;;28.69;20.63
85319;BME280;75722;49.004;12.120;2024-02-21T12:00:40;98085.50;;;27.42;22.15
85319;BME280;75722;49.004;12.120;2024-02-21T12:03:08;98085.66;;;26.63;22.54
85319;BME280;75722;49.004;12.120;2024-02-21T12:05:34;98082.81;;;24.84;23.05
85319;BME280;75722;49.004;12.120;2024-02-21T12:07:59;98071.63;;;24.02;23.71
85319;BME280;75722;49.004;12.120;2024-02-21T12:10:28;98061.66;;;24.27;24.77
85319;BME280;75722;49.004;12.120;2024-02-21T12:12:53;98062.09;;;24.71;23.85
85319;BME280;75722;49.004;12.120;2024-02-21T12:15:23;98059.75;;;25.90;23.89
85319;BME280;75722;49.004;12.120;2024-02-21T12:17:49;98052.75;;;25.62;22.71
85319;BME280;75722;49.004;12.120;2024-02-21T12:20:17;98054.88;;;24.70;23.52
85319;BME280;75722;49.004;12.120;2024-02-21T12:22:42;98050.72;;;21.56;27.72
85319;BME280;75722;49.004;12.120;2024-02-21T12:25:26;98047.06;;;21.50;31.08
85319;BME280;75722;49.004;12.120;2024-02-21T12:27:52;98045.53;;;20.37;28.70
85319;BME280;75722;49.004;12.120;2024-02-21T12:30:18;98042.94;;;19.91;31.39
85319;BME280;75722;49.004;12.120;2024-02-21T12:32:45;98046.53;;;18.69;31.43
85319;BME280;75722;49.004;12.120;2024-02-21T12:35:10;98033.09;;;19.78;36.36
85319;BME280;75722;49.004;12.120;2024-02-21T12:37:36;98023.66;;;20.25;30.18
85319;BME280;75722;49.004;12.120;2024-02-21T12:40:04;98022.31;;;19.54;33.96
85319;BME280;75722;49.004;12.120;2024-02-21T12:42:32;98028.16;;;20.54;29.10
85319;BME280;75722;49.004;12.120;2024-02-21T12:44:58;98013.34;;;20.15;33.01
85319;BME280;75722;49.004;12.120;2024-02-21T12:47:23;98010.69;;;21.15;28.84
85319;BME280;75722;49.004;12.120;2024-02-21T12:49:50;98003.88;;;21.23;28.28
85319;BME280;75722;49.004;12.120;2024-02-21T12:52:15;98002.25;;;20.49;29.27
85319;BME280;75722;49.004;12.120;2024-02-21T12:54:41;97993.47;;;21.63;30.51
85319;BME280;75722;49.004;12.120;2024-02-21T12:57:07;97987.25;;;22.21;27.16